sensor_id;sensor_type;location;lat;lon;timestamp;temperature;humidity
18880;DHT22;9572;52.378;13.404;2023-04-30T00:01:46;8.60;99.90
18880;DHT22;9572;52.378;13.404;2023-04-30T00:04:13;8.60;99.90
18880;DHT22;9572;52.378;13.404;2023-04-30T00:06:40;8.60;99.90
18880;DHT22;9572;52.378;13.404;2023-04-30T00:09:08;8.60;99.90
18880;DHT22;9572;52.378;13.404;2023-04-30T00:11:35;8.50;99.90
18880;DHT22;9572;52.378;13.404;2023-04-30T00:14:02;8.40;99.90
18880;DHT22;9572;52.378;13.404;2023-04-30T00:16:29;8.40;99.90
18880;DHT22;9572;52.378;13.404;2023-04-30T00:18:56;8.30;99.90
18880;DHT22;9572;52.378;13.404;2023-04-30T00:21:23;8.30;99.90
18880;DHT22;9572;52.378;13.404;2023-04-30T00:23:49;8.30;99.90
18880;DHT22;9572;52.378;13.404;2023-04-30T00:26:18;8.30;99.90
18880;DHT22;9572;52.378;13.404;2023-04-30T00:28:45;8.20;99.90
18880;DHT22;9572;52.378;13.404;2023-04-30T00:31:11;8.20;99.90
18880;DHT22;9572;52.378;13.404;2023-04-30T00:33:38;8.10;99.90
18880;DHT22;9572;52.378;13.404;2023-04-30T00:36:05;8.10;99.90
18880;DHT22;9572;52.378;13.404;2023-04-30T00:38:32;8.10;99.90
18880;DHT22;9572;52.378;13.404;2023-04-30T00:40:59;8.10;99.90
18880;DHT22;9572;52.378;13.404;2023-04-30T00:43:27;8.10;99.90
18880;DHT22;9572;52.378;13.404;2023-04-30T00:45:54;8.00;99.90
18880;DHT22;9572;52.378;13.404;2023-04-30T00:48:23;8.10;99.90
18880;DHT22;9572;52.378;13.404;2023-04-30T00:50:50;8.00;99.90
18880;DHT22;9572;52.378;13.404;2023-04-30T00:53:18;7.90;99.90
18880;DHT22;9572;52.378;13.404;2023-04-30T00:55:46;7.80;99.90
18880;DHT22;9572;52.378;13.404;2023-04-30T00:58:14;7.90;99.90
18880;DHT22;9572;52.378;13.404;2023-04-30T01:00:42;7.80;99.90
18880;DHT22;9572;52.378;13.404;2023-04-30T01:03:11;7.80;99.90
18880;DHT22;9572;52.378;13.404;2023-04-30T01:05:39;7.70;99.90
18880;DHT22;9572;52.378;13.404;2023-04-30T01:08:06;7.80;99.90
18880;DHT22;9572;52.378;13.404;2023-04-30T01:10:39;7.70;99.90
18880;DHT22;9572;52.378;13.404;2023-04-30T01:13:12;7.60;99.90
18880;DHT22;9572;52.378;13.404;2023-04-30T01:15:47;7.60;99.90
18880;DHT22;9572;52.378;13.404;2023-04-30T01:18:21;7.60;99.90
18880;DHT22;9572;52.378;13.404;2023-04-30T01:20:53;7.50;99.90
18880;DHT22;9572;52.378;13.404;2023-04-30T01:23:31;7.40;99.90
18880;DHT22;9572;52.378;13.404;2023-04-30T01:26:10;7.30;99.90
18880;DHT22;9572;52.378;13.404;2023-04-30T01:28:42;7.20;99.90
18880;DHT22;9572;52.378;13.404;2023-04-30T01:31:13;7.10;99.90
18880;DHT22;9572;52.378;13.404;2023-04-30T01:33:41;7.00;99.90
18880;DHT22;9572;52.378;13.404;2023-04-30T01:36:34;7.00;99.90
18880;DHT22;9572;52.378;13.404;2023-04-30T01:39:19;6.90;99.90
18880;DHT22;9572;52.378;13.404;2023-04-30T01:41:53;6.90;99.90
18880;DHT22;9572;52.378;13.404;2023-04-30T01:44:35;6.80;99.90
18880;DHT22;9572;52.378;13.404;2023-04-30T01:47:11;6.80;99.90
18880;DHT22;9572;52.378;13.404;2023-04-30T01:49:49;6.80;99.90
18880;DHT22;9572;52.378;13.404;2023-04-30T01:52:22;6.80;99.90
18880;DHT22;9572;52.378;13.404;2023-04-30T01:54:54;6.90;99.90
18880;DHT22;9572;52.378;13.404;2023-04-30T01:57:27;6.90;99.90
18880;DHT22;9572;52.378;13.404;2023-04-30T01:59:56;6.90;99.90
18880;DHT22;9572;52.378;13.404;2023-04-30T02:02:23;6.80;99.90
18880;DHT22;9572;52.378;13.404;2023-04-30T02:04:50;6.80;99.90
18880;DHT22;9572;52.378;13.404;2023-04-30T02:07:27;6.80;99.90
18880;DHT22;9572;52.378;13.404;2023-04-30T02:09:59;6.80;99.90
18880;DHT22;9572;52.378;13.404;2023-04-30T02:12:26;6.80;99.90
18880;DHT22;9572;52.378;13.404;2023-04-30T02:14:56;6.70;99.90
18880;DHT22;9572;52.378;13.404;2023-04-30T02:17:22;6.70;99.90
18880;DHT22;9572;52.378;13.404;2023-04-30T02:19:50;6.70;99.90
18880;DHT22;9572;52.378;13.404;2023-04-30T02:22:16;6.60;99.90
18880;DHT22;9572;52.378;13.404;2023-04-30T02:24:43;6.50;99.90
18880;DHT22;9572;52.378;13.404;2023-04-30T02:27:10;6.40;99.90
18880;DHT22;9572;52.378;13.404;2023-04-30T02:29:37;6.40;99.90
18880;DHT22;9572;52.378;13.404;2023-04-30T02:32:06;6.30;99.90
18880;DHT22;9572;52.378;13.404;2023-04-30T02:34:33;6.30;99.90
18880;DHT22;9572;52.378;13.404;2023-04-30T02:37:00;6.30;99.90
18880;DHT22;9572;52.378;13.404;2023-04-30T02:39:27;6.30;99.90
18880;DHT22;9572;52.378;13.404;2023-04-30T02:41:54;6.20;99.90
18880;DHT22;9572;52.378;13.404;2023-04-30T02:44:21;6.20;99.90
18880;DHT22;9572;52.378;13.404;2023-04-30T02:46:47;6.20;99.90
18880;DHT22;9572;52.378;13.404;2023-04-30T02:49:16;6.10;99.90
18880;DHT22;9572;52.378;13.404;2023-04-30T02:51:43;6.10;99.90
18880;DHT22;9572;52.378;13.404;2023-04-30T02:54:10;6.00;99.90
18880;DHT22;9572;52.378;13.404;2023-04-30T02:56:37;5.90;99.90
18880;DHT22;9572;52.378;13.404;2023-04-30T02:59:04;5.90;99.90
18880;DHT22;9572;52.378;13.404;2023-04-30T03:01:31;5.80;99.90
18880;DHT22;9572;52.378;13.404;2023-04-30T03:03:58;5.80;99.90
18880;DHT22;9572;52.378;13.404;2023-04-30T03:06:26;5.70;99.90
18880;DHT22;9572;52.378;13.404;2023-04-30T03:08:53;5.70;99.90
18880;DHT22;9572;52.378;13.404;2023-04-30T03:11:20;5.70;99.90
18880;DHT22;9572;52.378;13.404;2023-04-30T03:13:47;5.60;99.90
18880;DHT22;9572;52.378;13.404;2023-04-30T03:16:16;5.60;99.90
18880;DHT22;9572;52.378;13.404;2023-04-30T03:18:43;5.60;99.90
18880;DHT22;9572;52.378;13.404;2023-04-30T03:21:10;5.50;99.90
18880;DHT22;9572;52.378;13.404;2023-04-30T03:23:38;5.50;99.90
18880;DHT22;9572;52.378;13.404;2023-04-30T03:26:05;5.50;99.90
18880;DHT22;9572;52.378;13.404;2023-04-30T03:28:33;5.40;99.90
18880;DHT22;9572;52.378;13.404;2023-04-30T03:31:00;5.40;99.90
18880;DHT22;9572;52.378;13.404;2023-04-30T03:33:29;5.50;99.90
18880;DHT22;9572;52.378;13.404;2023-04-30T03:35:56;5.50;99.90
18880;DHT22;9572;52.378;13.404;2023-04-30T03:38:23;5.50;99.90
18880;DHT22;9572;52.378;13.404;2023-04-30T03:40:51;5.40;99.90
18880;DHT22;9572;52.378;13.404;2023-04-30T03:43:18;5.40;99.90
18880;DHT22;9572;52.378;13.404;2023-04-30T03:45:45;5.40;99.90
18880;DHT22;9572;52.378;13.404;2023-04-30T03:48:12;5.50;99.90
18880;DHT22;9572;52.378;13.404;2023-04-30T03:50:39;5.50;99.90
18880;DHT22;9572;52.378;13.404;2023-04-30T03:53:06;5.40;99.90
18880;DHT22;9572;52.378;13.404;2023-04-30T03:55:33;5.40;99.90
18880;DHT22;9572;52.378;13.404;2023-04-30T03:58:01;5.40;99.90
18880;DHT22;9572;52.378;13.404;2023-04-30T04:00:28;5.40;99.90
18880;DHT22;9572;52.378;13.404;2023-04-30T04:02:56;5.40;99.90
18880;DHT22;9572;52.378;13.404;2023-04-30T04:05:24;5.50;99.90
18880;DHT22;9572;52.378;13.404;2023-04-30T04:07:51;5.60;99.90
18880;DHT22;9572;52.378;13.404;2023-04-30T04:10:18;5.50;99.90
18880;DHT22;9572;52.378;13.404;2023-04-30T04:12:45;5.40;99.90
18880;DHT22;9572;52.378;13.404;2023-04-30T04:15:13;5.50;99.90
18880;DHT22;9572;52.378;13.404;2023-04-30T04:17:40;5.50;99.90
18880;DHT22;9572;52.378;13.404;2023-04-30T04:20:08;5.50;99.90
18880;DHT22;9572;52.378;13.404;2023-04-30T04:22:35;5.60;99.90
18880;DHT22;9572;52.378;13.404;2023-04-30T04:25:02;5.60;99.90
18880;DHT22;9572;52.378;13.404;2023-04-30T04:27:29;5.60;99.90
18880;DHT22;9572;52.378;13.404;2023-04-30T04:29:55;5.60;99.90
18880;DHT22;9572;52.378;13.404;2023-04-30T04:32:24;5.70;99.90
18880;DHT22;9572;52.378;13.404;2023-04-30T04:34:51;5.80;99.90
18880;DHT22;9572;52.378;13.404;2023-04-30T04:37:21;5.80;99.90
18880;DHT22;9572;52.378;13.404;2023-04-30T04:39:48;5.90;99.90
18880;DHT22;9572;52.378;13.404;2023-04-30T04:42:16;5.90;99.90
18880;DHT22;9572;52.378;13.404;2023-04-30T04:44:42;5.80;99.90
18880;DHT22;9572;52.378;13.404;2023-04-30T04:47:09;5.90;99.90
18880;DHT22;9572;52.378;13.404;2023-04-30T04:49:38;5.90;99.90
18880;DHT22;9572;52.378;13.404;2023-04-30T04:52:05;6.00;99.90
18880;DHT22;9572;52.378;13.404;2023-04-30T04:54:32;6.00;99.90
18880;DHT22;9572;52.378;13.404;2023-04-30T04:56:59;6.10;99.90
18880;DHT22;9572;52.378;13.404;2023-04-30T04:59:27;6.10;99.90
18880;DHT22;9572;52.378;13.404;2023-04-30T05:01:54;6.10;99.90
18880;DHT22;9572;52.378;13.404;2023-04-30T05:04:21;6.10;99.90
18880;DHT22;9572;52.378;13.404;2023-04-30T05:06:50;6.20;99.90
18880;DHT22;9572;52.378;13.404;2023-04-30T05:09:17;6.30;99.90
18880;DHT22;9572;52.378;13.404;2023-04-30T05:11:43;6.30;99.90
18880;DHT22;9572;52.378;13.404;2023-04-30T05:14:10;6.30;99.90
18880;DHT22;9572;52.378;13.404;2023-04-30T05:16:37;6.40;99.90
18880;DHT22;9572;52.378;13.404;2023-04-30T05:19:04;6.40;99.90
18880;DHT22;9572;52.378;13.404;2023-04-30T05:21:31;6.40;99.90
18880;DHT22;9572;52.378;13.404;2023-04-30T05:23:59;6.50;99.90
18880;DHT22;9572;52.378;13.404;2023-04-30T05:26:26;6.60;99.90
18880;DHT22;9572;52.378;13.404;2023-04-30T05:28:53;6.60;99.90
18880;DHT22;9572;52.378;13.404;2023-04-30T05:31:20;6.80;99.90
18880;DHT22;9572;52.378;13.404;2023-04-30T05:33:47;6.80;99.90
18880;DHT22;9572;52.378;13.404;2023-04-30T05:36:14;7.00;99.90
18880;DHT22;9572;52.378;13.404;2023-04-30T05:38:41;7.10;99.90
18880;DHT22;9572;52.378;13.404;2023-04-30T05:41:11;7.30;99.90
18880;DHT22;9572;52.378;13.404;2023-04-30T05:43:38;7.40;99.90
18880;DHT22;9572;52.378;13.404;2023-04-30T05:46:05;7.60;99.90
18880;DHT22;9572;52.378;13.404;2023-04-30T05:48:32;7.70;99.90
18880;DHT22;9572;52.378;13.404;2023-04-30T05:50:58;7.80;99.90
18880;DHT22;9572;52.378;13.404;2023-04-30T05:53:26;7.90;99.90
18880;DHT22;9572;52.378;13.404;2023-04-30T05:55:52;8.00;99.90
18880;DHT22;9572;52.378;13.404;2023-04-30T05:58:21;8.30;99.90
18880;DHT22;9572;52.378;13.404;2023-04-30T06:00:48;8.40;99.90
18880;DHT22;9572;52.378;13.404;2023-04-30T06:03:16;8.60;99.90
18880;DHT22;9572;52.378;13.404;2023-04-30T06:05:43;8.80;99.90
18880;DHT22;9572;52.378;13.404;2023-04-30T06:08:10;9.00;99.90
18880;DHT22;9572;52.378;13.404;2023-04-30T06:10:37;9.20;99.90
18880;DHT22;9572;52.378;13.404;2023-04-30T06:13:05;9.20;99.90
18880;DHT22;9572;52.378;13.404;2023-04-30T06:15:33;9.40;99.90
18880;DHT22;9572;52.378;13.404;2023-04-30T06:18:00;9.40;99.90
18880;DHT22;9572;52.378;13.404;2023-04-30T06:20:27;9.60;99.90
18880;DHT22;9572;52.378;13.404;2023-04-30T06:22:54;9.50;99.90
18880;DHT22;9572;52.378;13.404;2023-04-30T06:25:21;9.60;99.90
18880;DHT22;9572;52.378;13.404;2023-04-30T06:27:48;9.70;99.90
18880;DHT22;9572;52.378;13.404;2023-04-30T06:30:16;9.70;99.90
18880;DHT22;9572;52.378;13.404;2023-04-30T06:32:44;9.80;99.90
18880;DHT22;9572;52.378;13.404;2023-04-30T06:35:11;10.00;99.90
18880;DHT22;9572;52.378;13.404;2023-04-30T06:37:38;10.20;99.90
18880;DHT22;9572;52.378;13.404;2023-04-30T06:40:06;10.20;99.90
18880;DHT22;9572;52.378;13.404;2023-04-30T06:42:33;10.30;99.90
18880;DHT22;9572;52.378;13.404;2023-04-30T06:45:00;10.10;99.90
18880;DHT22;9572;52.378;13.404;2023-04-30T06:47:28;10.00;99.90
18880;DHT22;9572;52.378;13.404;2023-04-30T06:50:00;10.00;99.90
18880;DHT22;9572;52.378;13.404;2023-04-30T06:52:27;10.00;99.90
18880;DHT22;9572;52.378;13.404;2023-04-30T06:54:54;10.10;99.90
18880;DHT22;9572;52.378;13.404;2023-04-30T06:57:21;10.30;99.90
18880;DHT22;9572;52.378;13.404;2023-04-30T06:59:49;10.40;99.90
18880;DHT22;9572;52.378;13.404;2023-04-30T07:02:16;10.40;99.90
18880;DHT22;9572;52.378;13.404;2023-04-30T07:04:42;10.50;99.90
18880;DHT22;9572;52.378;13.404;2023-04-30T07:07:11;10.70;99.90
18880;DHT22;9572;52.378;13.404;2023-04-30T07:09:38;10.80;99.90
18880;DHT22;9572;52.378;13.404;2023-04-30T07:12:05;10.70;99.90
18880;DHT22;9572;52.378;13.404;2023-04-30T07:14:32;10.60;99.90
18880;DHT22;9572;52.378;13.404;2023-04-30T07:16:58;10.60;99.90
18880;DHT22;9572;52.378;13.404;2023-04-30T07:19:26;10.90;99.90
18880;DHT22;9572;52.378;13.404;2023-04-30T07:21:53;11.20;99.90
18880;DHT22;9572;52.378;13.404;2023-04-30T07:24:21;11.40;99.90
18880;DHT22;9572;52.378;13.404;2023-04-30T07:26:48;11.50;99.90
18880;DHT22;9572;52.378;13.404;2023-04-30T07:29:14;11.50;99.90
18880;DHT22;9572;52.378;13.404;2023-04-30T07:31:42;11.60;99.90
18880;DHT22;9572;52.378;13.404;2023-04-30T07:34:10;11.70;99.90
18880;DHT22;9572;52.378;13.404;2023-04-30T07:36:37;11.80;99.90
18880;DHT22;9572;52.378;13.404;2023-04-30T07:39:04;12.00;99.90
18880;DHT22;9572;52.378;13.404;2023-04-30T07:41:33;11.90;99.90
18880;DHT22;9572;52.378;13.404;2023-04-30T07:44:01;11.70;99.90
18880;DHT22;9572;52.378;13.404;2023-04-30T07:46:28;11.50;99.90
18880;DHT22;9572;52.378;13.404;2023-04-30T07:48:54;11.60;99.90
18880;DHT22;9572;52.378;13.404;2023-04-30T07:51:21;11.80;99.90
18880;DHT22;9572;52.378;13.404;2023-04-30T07:53:48;11.90;99.90
18880;DHT22;9572;52.378;13.404;2023-04-30T07:56:17;12.20;99.90
18880;DHT22;9572;52.378;13.404;2023-04-30T07:58:46;12.40;99.90
18880;DHT22;9572;52.378;13.404;2023-04-30T08:01:13;12.40;99.90
18880;DHT22;9572;52.378;13.404;2023-04-30T08:03:40;12.50;99.90
18880;DHT22;9572;52.378;13.404;2023-04-30T08:06:07;12.90;99.90
18880;DHT22;9572;52.378;13.404;2023-04-30T08:08:34;13.00;99.90
18880;DHT22;9572;52.378;13.404;2023-04-30T08:11:01;13.00;99.90
18880;DHT22;9572;52.378;13.404;2023-04-30T08:13:28;13.00;99.90
18880;DHT22;9572;52.378;13.404;2023-04-30T08:15:56;13.00;99.90
18880;DHT22;9572;52.378;13.404;2023-04-30T08:18:23;12.90;99.90
18880;DHT22;9572;52.378;13.404;2023-04-30T08:20:50;12.90;99.90
18880;DHT22;9572;52.378;13.404;2023-04-30T08:23:17;12.80;99.90
18880;DHT22;9572;52.378;13.404;2023-04-30T08:25:44;12.90;99.90
18880;DHT22;9572;52.378;13.404;2023-04-30T08:28:11;13.00;99.90
18880;DHT22;9572;52.378;13.404;2023-04-30T08:30:38;13.40;99.90
18880;DHT22;9572;52.378;13.404;2023-04-30T08:33:06;13.50;99.90
18880;DHT22;9572;52.378;13.404;2023-04-30T08:35:33;13.60;99.90
18880;DHT22;9572;52.378;13.404;2023-04-30T08:38:00;13.60;99.90
18880;DHT22;9572;52.378;13.404;2023-04-30T08:40:27;13.50;99.90
18880;DHT22;9572;52.378;13.404;2023-04-30T08:42:59;13.20;99.90
18880;DHT22;9572;52.378;13.404;2023-04-30T08:45:30;13.10;99.90
18880;DHT22;9572;52.378;13.404;2023-04-30T08:47:58;13.30;99.90
18880;DHT22;9572;52.378;13.404;2023-04-30T08:50:27;13.90;99.90
18880;DHT22;9572;52.378;13.404;2023-04-30T08:52:54;14.00;99.90
18880;DHT22;9572;52.378;13.404;2023-04-30T08:55:21;14.20;99.90
18880;DHT22;9572;52.378;13.404;2023-04-30T08:57:50;14.50;99.90
18880;DHT22;9572;52.378;13.404;2023-04-30T09:00:17;14.70;99.90
18880;DHT22;9572;52.378;13.404;2023-04-30T09:02:46;14.70;99.90
18880;DHT22;9572;52.378;13.404;2023-04-30T09:05:14;14.20;99.90
18880;DHT22;9572;52.378;13.404;2023-04-30T09:07:43;14.10;99.90
18880;DHT22;9572;52.378;13.404;2023-04-30T09:10:15;14.10;99.90
18880;DHT22;9572;52.378;13.404;2023-04-30T09:12:42;14.40;99.90
18880;DHT22;9572;52.378;13.404;2023-04-30T09:15:11;14.90;99.90
18880;DHT22;9572;52.378;13.404;2023-04-30T09:17:38;15.20;99.90
18880;DHT22;9572;52.378;13.404;2023-04-30T09:20:06;14.70;99.90
18880;DHT22;9572;52.378;13.404;2023-04-30T09:22:34;14.50;99.90
18880;DHT22;9572;52.378;13.404;2023-04-30T09:25:04;14.10;99.90
18880;DHT22;9572;52.378;13.404;2023-04-30T09:27:31;14.10;99.90
18880;DHT22;9572;52.378;13.404;2023-04-30T09:29:58;14.30;99.90
18880;DHT22;9572;52.378;13.404;2023-04-30T09:32:25;14.50;99.90
18880;DHT22;9572;52.378;13.404;2023-04-30T09:34:53;14.60;99.90
18880;DHT22;9572;52.378;13.404;2023-04-30T09:37:20;14.40;99.90
18880;DHT22;9572;52.378;13.404;2023-04-30T09:39:49;14.70;99.90
18880;DHT22;9572;52.378;13.404;2023-04-30T09:42:17;14.90;99.90
18880;DHT22;9572;52.378;13.404;2023-04-30T09:44:45;15.10;99.90
18880;DHT22;9572;52.378;13.404;2023-04-30T09:47:13;15.00;99.90
18880;DHT22;9572;52.378;13.404;2023-04-30T09:49:42;14.90;99.90
18880;DHT22;9572;52.378;13.404;2023-04-30T09:52:10;15.30;99.90
18880;DHT22;9572;52.378;13.404;2023-04-30T09:54:37;15.80;99.90
18880;DHT22;9572;52.378;13.404;2023-04-30T09:57:07;16.10;99.90
18880;DHT22;9572;52.378;13.404;2023-04-30T09:59:37;16.40;99.90
18880;DHT22;9572;52.378;13.404;2023-04-30T10:02:06;16.30;99.90
18880;DHT22;9572;52.378;13.404;2023-04-30T10:04:35;16.40;99.90
18880;DHT22;9572;52.378;13.404;2023-04-30T10:07:04;16.40;99.90
18880;DHT22;9572;52.378;13.404;2023-04-30T10:09:38;15.70;99.90
18880;DHT22;9572;52.378;13.404;2023-04-30T10:12:09;14.70;99.90
18880;DHT22;9572;52.378;13.404;2023-04-30T10:14:40;14.50;99.90
18880;DHT22;9572;52.378;13.404;2023-04-30T10:17:13;14.60;99.90
18880;DHT22;9572;52.378;13.404;2023-04-30T10:19:44;15.00;99.90
18880;DHT22;9572;52.378;13.404;2023-04-30T10:22:12;15.50;99.90
18880;DHT22;9572;52.378;13.404;2023-04-30T10:24:41;16.10;99.90
18880;DHT22;9572;52.378;13.404;2023-04-30T10:27:09;16.30;99.90
18880;DHT22;9572;52.378;13.404;2023-04-30T10:29:36;16.60;99.90
18880;DHT22;9572;52.378;13.404;2023-04-30T10:32:05;16.70;98.70
18880;DHT22;9572;52.378;13.404;2023-04-30T10:34:40;16.20;98.80
18880;DHT22;9572;52.378;13.404;2023-04-30T10:37:14;16.10;99.90
18880;DHT22;9572;52.378;13.404;2023-04-30T10:39:45;16.60;99.90
18880;DHT22;9572;52.378;13.404;2023-04-30T10:42:12;17.50;99.90
18880;DHT22;9572;52.378;13.404;2023-04-30T10:44:39;17.80;99.90
18880;DHT22;9572;52.378;13.404;2023-04-30T10:47:08;17.90;98.90
18880;DHT22;9572;52.378;13.404;2023-04-30T10:49:35;17.80;99.90
18880;DHT22;9572;52.378;13.404;2023-04-30T10:52:03;17.90;99.70
18880;DHT22;9572;52.378;13.404;2023-04-30T10:54:32;17.70;98.60
18880;DHT22;9572;52.378;13.404;2023-04-30T10:57:10;17.90;98.00
18880;DHT22;9572;52.378;13.404;2023-04-30T10:59:39;18.30;97.30
18880;DHT22;9572;52.378;13.404;2023-04-30T11:02:14;17.80;95.80
18880;DHT22;9572;52.378;13.404;2023-04-30T11:05:08;17.40;98.30
18880;DHT22;9572;52.378;13.404;2023-04-30T11:07:36;17.30;99.90
18880;DHT22;9572;52.378;13.404;2023-04-30T11:10:06;17.30;97.00
18880;DHT22;9572;52.378;13.404;2023-04-30T11:12:34;17.30;97.80
18880;DHT22;9572;52.378;13.404;2023-04-30T11:15:11;17.30;97.10
18880;DHT22;9572;52.378;13.404;2023-04-30T11:17:42;17.60;97.70
18880;DHT22;9572;52.378;13.404;2023-04-30T11:20:11;17.20;96.30
18880;DHT22;9572;52.378;13.404;2023-04-30T11:22:39;17.00;96.70
18880;DHT22;9572;52.378;13.404;2023-04-30T11:25:08;17.30;98.30
18880;DHT22;9572;52.378;13.404;2023-04-30T11:27:36;17.70;97.20
18880;DHT22;9572;52.378;13.404;2023-04-30T11:30:10;18.00;95.30
18880;DHT22;9572;52.378;13.404;2023-04-30T11:32:40;18.10;95.00
18880;DHT22;9572;52.378;13.404;2023-04-30T11:35:07;17.90;95.10
18880;DHT22;9572;52.378;13.404;2023-04-30T11:37:36;17.80;96.70
18880;DHT22;9572;52.378;13.404;2023-04-30T11:40:05;17.80;95.50
18880;DHT22;9572;52.378;13.404;2023-04-30T11:42:33;17.90;94.90
18880;DHT22;9572;52.378;13.404;2023-04-30T11:45:05;18.20;95.60
18880;DHT22;9572;52.378;13.404;2023-04-30T11:47:41;18.20;93.50
18880;DHT22;9572;52.378;13.404;2023-04-30T11:50:09;18.20;93.00
18880;DHT22;9572;52.378;13.404;2023-04-30T11:52:36;18.30;93.10
18880;DHT22;9572;52.378;13.404;2023-04-30T11:55:11;18.20;94.20
18880;DHT22;9572;52.378;13.404;2023-04-30T11:57:40;18.30;93.30
18880;DHT22;9572;52.378;13.404;2023-04-30T12:00:10;18.20;95.30
18880;DHT22;9572;52.378;13.404;2023-04-30T12:02:37;18.30;93.90
18880;DHT22;9572;52.378;13.404;2023-04-30T12:05:11;18.20;95.20
18880;DHT22;9572;52.378;13.404;2023-04-30T12:07:44;18.30;94.00
18880;DHT22;9572;52.378;13.404;2023-04-30T12:10:12;18.20;93.20
18880;DHT22;9572;52.378;13.404;2023-04-30T12:12:39;18.00;92.80
18880;DHT22;9572;52.378;13.404;2023-04-30T12:15:14;18.00;93.70
18880;DHT22;9572;52.378;13.404;2023-04-30T12:17:41;17.60;92.60
18880;DHT22;9572;52.378;13.404;2023-04-30T12:20:11;17.60;93.80
18880;DHT22;9572;52.378;13.404;2023-04-30T12:22:39;17.80;94.00
18880;DHT22;9572;52.378;13.404;2023-04-30T12:25:08;18.10;92.90
18880;DHT22;9572;52.378;13.404;2023-04-30T12:27:36;18.10;92.50
18880;DHT22;9572;52.378;13.404;2023-04-30T12:30:06;18.00;94.90
18880;DHT22;9572;52.378;13.404;2023-04-30T12:32:38;18.00;94.60
18880;DHT22;9572;52.378;13.404;2023-04-30T12:35:06;18.20;92.10
18880;DHT22;9572;52.378;13.404;2023-04-30T12:37:35;18.10;92.60
18880;DHT22;9572;52.378;13.404;2023-04-30T12:40:02;17.60;93.00
18880;DHT22;9572;52.378;13.404;2023-04-30T12:42:32;17.60;95.70
18880;DHT22;9572;52.378;13.404;2023-04-30T12:45:00;17.50;92.70
18880;DHT22;9572;52.378;13.404;2023-04-30T12:47:28;17.40;93.60
18880;DHT22;9572;52.378;13.404;2023-04-30T12:49:55;17.20;95.60
18880;DHT22;9572;52.378;13.404;2023-04-30T12:52:24;17.40;96.50
18880;DHT22;9572;52.378;13.404;2023-04-30T12:54:52;17.60;94.90
18880;DHT22;9572;52.378;13.404;2023-04-30T12:57:20;18.00;94.90
18880;DHT22;9572;52.378;13.404;2023-04-30T13:00:06;18.30;93.40
18880;DHT22;9572;52.378;13.404;2023-04-30T13:02:33;18.30;91.70
18880;DHT22;9572;52.378;13.404;2023-04-30T13:04:59;18.10;94.20
18880;DHT22;9572;52.378;13.404;2023-04-30T13:07:35;17.50;95.60
18880;DHT22;9572;52.378;13.404;2023-04-30T13:10:05;17.40;93.10
18880;DHT22;9572;52.378;13.404;2023-04-30T13:12:32;17.50;94.80
18880;DHT22;9572;52.378;13.404;2023-04-30T13:14:59;17.60;94.30
18880;DHT22;9572;52.378;13.404;2023-04-30T13:17:27;17.80;93.90
18880;DHT22;9572;52.378;13.404;2023-04-30T13:19:54;18.20;91.40
18880;DHT22;9572;52.378;13.404;2023-04-30T13:22:21;18.10;92.30
18880;DHT22;9572;52.378;13.404;2023-04-30T13:24:49;18.10;90.90
18880;DHT22;9572;52.378;13.404;2023-04-30T13:27:17;18.10;90.30
18880;DHT22;9572;52.378;13.404;2023-04-30T13:29:44;17.80;91.00
18880;DHT22;9572;52.378;13.404;2023-04-30T13:32:11;17.70;92.00
18880;DHT22;9572;52.378;13.404;2023-04-30T13:34:38;17.80;91.00
18880;DHT22;9572;52.378;13.404;2023-04-30T13:37:05;17.70;93.70
18880;DHT22;9572;52.378;13.404;2023-04-30T13:39:32;17.90;93.50
18880;DHT22;9572;52.378;13.404;2023-04-30T13:41:59;17.90;94.10
18880;DHT22;9572;52.378;13.404;2023-04-30T13:44:27;17.80;91.80
18880;DHT22;9572;52.378;13.404;2023-04-30T13:46:57;17.70;91.10
18880;DHT22;9572;52.378;13.404;2023-04-30T13:49:24;17.50;94.20
18880;DHT22;9572;52.378;13.404;2023-04-30T13:51:50;17.70;94.70
18880;DHT22;9572;52.378;13.404;2023-04-30T13:54:17;18.00;92.00
18880;DHT22;9572;52.378;13.404;2023-04-30T13:56:44;18.00;92.10
18880;DHT22;9572;52.378;13.404;2023-04-30T13:59:13;18.00;94.00
18880;DHT22;9572;52.378;13.404;2023-04-30T14:01:41;18.20;93.10
18880;DHT22;9572;52.378;13.404;2023-04-30T14:04:08;18.50;91.80
18880;DHT22;9572;52.378;13.404;2023-04-30T14:06:36;18.30;91.30
18880;DHT22;9572;52.378;13.404;2023-04-30T14:09:03;17.70;92.60
18880;DHT22;9572;52.378;13.404;2023-04-30T14:11:31;17.70;93.40
18880;DHT22;9572;52.378;13.404;2023-04-30T14:13:57;18.00;94.20
18880;DHT22;9572;52.378;13.404;2023-04-30T14:16:25;18.40;93.90
18880;DHT22;9572;52.378;13.404;2023-04-30T14:18:53;18.60;91.70
18880;DHT22;9572;52.378;13.404;2023-04-30T14:21:20;18.20;91.10
18880;DHT22;9572;52.378;13.404;2023-04-30T14:23:47;17.90;91.90
18880;DHT22;9572;52.378;13.404;2023-04-30T14:26:14;17.60;92.50
18880;DHT22;9572;52.378;13.404;2023-04-30T14:28:40;17.90;90.30
18880;DHT22;9572;52.378;13.404;2023-04-30T14:31:07;17.90;89.60
18880;DHT22;9572;52.378;13.404;2023-04-30T14:33:35;17.60;89.00
18880;DHT22;9572;52.378;13.404;2023-04-30T14:36:04;17.50;87.20
18880;DHT22;9572;52.378;13.404;2023-04-30T14:38:31;17.50;88.40
18880;DHT22;9572;52.378;13.404;2023-04-30T14:40:58;17.50;88.70
18880;DHT22;9572;52.378;13.404;2023-04-30T14:43:24;17.70;90.80
18880;DHT22;9572;52.378;13.404;2023-04-30T14:45:51;17.80;90.20
18880;DHT22;9572;52.378;13.404;2023-04-30T14:48:18;17.80;90.40
18880;DHT22;9572;52.378;13.404;2023-04-30T14:50:45;17.60;90.10
18880;DHT22;9572;52.378;13.404;2023-04-30T14:53:13;17.50;91.20
18880;DHT22;9572;52.378;13.404;2023-04-30T14:55:40;17.30;88.60
18880;DHT22;9572;52.378;13.404;2023-04-30T14:58:08;17.00;89.70
18880;DHT22;9572;52.378;13.404;2023-04-30T15:00:35;17.00;90.00
18880;DHT22;9572;52.378;13.404;2023-04-30T15:03:02;17.20;85.50
18880;DHT22;9572;52.378;13.404;2023-04-30T15:05:29;17.10;89.00
18880;DHT22;9572;52.378;13.404;2023-04-30T15:07:56;17.10;87.50
18880;DHT22;9572;52.378;13.404;2023-04-30T15:10:24;17.10;87.90
18880;DHT22;9572;52.378;13.404;2023-04-30T15:12:51;17.00;89.70
18880;DHT22;9572;52.378;13.404;2023-04-30T15:15:18;16.80;90.60
18880;DHT22;9572;52.378;13.404;2023-04-30T15:17:49;16.80;90.50
18880;DHT22;9572;52.378;13.404;2023-04-30T15:20:17;16.80;90.40
18880;DHT22;9572;52.378;13.404;2023-04-30T15:22:44;16.70;90.70
18880;DHT22;9572;52.378;13.404;2023-04-30T15:25:11;16.50;90.70
18880;DHT22;9572;52.378;13.404;2023-04-30T15:27:39;16.40;92.30
18880;DHT22;9572;52.378;13.404;2023-04-30T15:30:07;16.10;92.80
18880;DHT22;9572;52.378;13.404;2023-04-30T15:32:35;16.10;92.30
18880;DHT22;9572;52.378;13.404;2023-04-30T15:35:01;16.30;91.50
18880;DHT22;9572;52.378;13.404;2023-04-30T15:37:28;16.40;91.10
18880;DHT22;9572;52.378;13.404;2023-04-30T15:42:31;16.50;92.00
18880;DHT22;9572;52.378;13.404;2023-04-30T15:44:59;16.40;92.00
18880;DHT22;9572;52.378;13.404;2023-04-30T15:47:26;16.40;91.90